Time;durP1;ratioP1;P1;durP2;ratioP2;P2;SDS_P1;SDS_P2;PMS_P1;PMS_P2;Temp;Humidity;BMP_temperature;BMP_pressure;BME280_temperature;BME280_humidity;BME280_pressure;Samples;Min_cycle;Max_cycle;Signal;HPM_P1;HPM_P2
2020/12/02 03:35:44;;;;;;;35.40;31.90;;;4.30;99.90;;;;;;5297815;23;20512;-74
2020/12/02 03:38:11;;;;;;;33.83;31.23;;;4.30;99.90;;;;;;4929506;29;20481;-76
2020/12/02 03:40:40;;;;;;;33.20;30.53;;;4.30;99.90;;;;;;4925072;29;20466;-78
2020/12/02 03:43:07;;;;;;;34.60;31.50;;;4.30;99.90;;;;;;4917641;29;21034;-78
2020/12/02 03:45:39;;;;;;;31.63;29.20;;;4.30;99.90;;;;;;4917436;29;20565;-80
2020/12/02 03:48:05;;;;;;;33.10;30.27;;;4.30;99.90;;;;;;4917207;29;20446;-78
2020/12/02 03:50:31;;;;;;;32.70;30.40;;;4.30;99.90;;;;;;4917387;29;20458;-80
2020/12/02 03:52:58;;;;;;;33.50;30.63;;;4.40;99.90;;;;;;4917501;29;20497;-80
2020/12/02 03:55:24;;;;;;;32.37;29.73;;;4.30;99.90;;;;;;4917146;29;20530;-80
2020/12/02 03:57:50;;;;;;;33.93;30.93;;;4.30;99.90;;;;;;4917471;29;20510;-80
2020/12/02 04:00:16;;;;;;;32.30;29.70;;;4.40;99.90;;;;;;4917383;29;20442;-79
2020/12/02 04:02:44;;;;;;;34.13;31.17;;;4.30;99.90;;;;;;4917030;29;20975;-79
2020/12/02 04:05:10;;;;;;;32.67;29.90;;;4.40;99.90;;;;;;4917074;29;20495;-80
2020/12/02 04:07:36;;;;;;;33.30;30.50;;;4.30;99.90;;;;;;4917339;29;20458;-80
2020/12/02 04:10:04;;;;;;;32.60;29.80;;;4.30;99.90;;;;;;4917517;29;20446;-78
2020/12/02 04:12:30;;;;;;;33.30;30.60;;;4.20;99.90;;;;;;4917671;29;20450;-79
2020/12/02 04:14:56;;;;;;;31.90;29.40;;;4.20;99.90;;;;;;4917417;29;20494;-77
2020/12/02 04:17:22;;;;;;;32.87;30.07;;;4.30;99.90;;;;;;4917174;29;20773;-77
2020/12/02 04:19:49;;;;;;;33.30;30.70;;;4.30;99.90;;;;;;4916963;29;20446;-79
2020/12/02 04:22:15;;;;;;;29.90;27.40;;;4.40;99.90;;;;;;4917354;29;20812;-78
2020/12/02 04:24:41;;;;;;;32.20;29.20;;;4.50;99.90;;;;;;4916996;29;20438;-79
2020/12/02 04:27:08;;;;;;;35.63;32.50;;;4.40;99.90;;;;;;4915756;29;20450;-78
2020/12/02 04:29:35;;;;;;;33.57;30.87;;;4.40;99.90;;;;;;4916079;29;20470;-77
2020/12/02 04:32:01;;;;;;;33.67;30.83;;;4.50;99.90;;;;;;4915922;29;20447;-78
2020/12/02 04:34:27;;;;;;;33.77;30.53;;;4.40;99.90;;;;;;4915212;29;21064;-76
2020/12/02 04:36:53;;;;;;;30.70;28.30;;;4.30;99.90;;;;;;4915651;29;20450;-78
2020/12/02 04:39:20;;;;;;;30.87;28.33;;;4.30;99.90;;;;;;4915615;29;21008;-78
2020/12/02 04:41:46;;;;;;;32.13;29.30;;;4.40;99.90;;;;;;4915791;29;20450;-78
2020/12/02 04:44:13;;;;;;;32.27;29.27;;;4.40;99.90;;;;;;4915466;29;20510;-77
2020/12/02 04:46:40;;;;;;;32.80;29.97;;;4.30;99.90;;;;;;4915424;29;20451;-76
2020/12/02 04:49:14;;;;;;;30.97;28.37;;;4.10;99.90;;;;;;4915261;29;20829;-78
2020/12/02 04:51:41;;;;;;;30.43;27.47;;;4.10;99.90;;;;;;4915207;29;20477;-77
2020/12/02 04:54:08;;;;;;;30.67;28.10;;;4.10;99.90;;;;;;4915234;29;20501;-78
2020/12/02 04:56:36;;;;;;;30.37;27.87;;;4.20;99.90;;;;;;4915432;29;20854;-79
2020/12/02 04:59:02;;;;;;;30.80;27.90;;;4.20;99.90;;;;;;4915658;29;20480;-78
2020/12/02 05:01:31;;;;;;;30.23;27.63;;;4.10;99.90;;;;;;4915312;29;20861;-79
2020/12/02 05:04:03;;;;;;;30.17;27.70;;;4.20;99.90;;;;;;4915028;29;20454;-76
2020/12/02 05:06:33;;;;;;;29.80;27.17;;;4.10;99.90;;;;;;4915011;29;20447;-78
2020/12/02 05:09:14;;;;;;;29.50;26.67;;;4.10;99.90;;;;;;4915059;29;20960;-77
2020/12/02 05:11:41;;;;;;;28.87;26.37;;;4.20;99.90;;;;;;4915195;29;20596;-77
2020/12/02 05:14:13;;;;;;;29.47;26.87;;;4.30;99.90;;;;;;4914648;29;20494;-77
2020/12/02 05:16:40;;;;;;;30.23;27.60;;;4.30;99.90;;;;;;4915134;29;20873;-77
2020/12/02 05:19:16;;;;;;;27.83;25.60;;;4.30;99.90;;;;;;4914812;29;20861;-78
2020/12/02 05:21:42;;;;;;;27.57;25.13;;;4.40;99.90;;;;;;4914904;29;20461;-78
2020/12/02 05:24:12;;;;;;;27.67;25.43;;;4.40;99.90;;;;;;4914636;29;20443;-78
2020/12/02 05:26:41;;;;;;;28.27;25.77;;;4.30;99.90;;;;;;4914814;29;20455;-78
2020/12/02 05:29:25;;;;;;;27.40;25.13;;;4.20;99.90;;;;;;4914590;29;20458;-78
2020/12/02 05:32:01;;;;;;;28.17;25.47;;;4.20;99.90;;;;;;4915031;29;20470;-79
2020/12/02 05:34:29;;;;;;;26.97;24.53;;;4.30;99.90;;;;;;4913726;29;20911;-80
2020/12/02 05:36:56;;;;;;;25.47;22.97;;;4.10;99.90;;;;;;4914079;29;21000;-78
2020/12/02 05:39:33;;;;;;;25.47;23.17;;;4.00;99.90;;;;;;4913723;29;20571;-77
2020/12/02 05:42:01;;;;;;;24.23;21.97;;;4.00;99.90;;;;;;4914484;29;20474;-76
2020/12/02 05:44:32;;;;;;;25.87;23.43;;;4.00;99.90;;;;;;4913849;29;20482;-78
2020/12/02 05:47:01;;;;;;;24.37;22.17;;;4.00;99.90;;;;;;4914000;29;20924;-77
2020/12/02 05:49:41;;;;;;;25.07;22.57;;;3.90;99.90;;;;;;4914096;29;20462;-78
2020/12/02 05:52:13;;;;;;;24.77;22.30;;;3.90;99.90;;;;;;4913792;29;20450;-72
2020/12/02 05:54:41;;;;;;;23.43;21.03;;;4.00;99.90;;;;;;4913915;29;20858;-71
2020/12/02 05:57:09;;;;;;;25.77;23.13;;;4.00;99.90;;;;;;4914098;29;20450;-73
2020/12/02 05:59:36;;;;;;;21.83;19.80;;;4.00;99.90;;;;;;4913915;29;20454;-73
2020/12/02 06:02:03;;;;;;;24.87;22.40;;;4.00;99.90;;;;;;4914063;29;20453;-70
2020/12/02 06:04:30;;;;;;;24.33;21.57;;;4.10;99.90;;;;;;4913794;29;20984;-73
2020/12/02 06:06:58;;;;;;;23.50;21.20;;;4.10;99.90;;;;;;4914187;29;20879;-72
2020/12/02 06:09:37;;;;;;;23.60;21.30;;;4.00;99.90;;;;;;4913689;29;20450;-69
2020/12/02 06:12:05;;;;;;;24.63;22.10;;;3.90;99.90;;;;;;4914266;29;20595;-70
2020/12/02 06:14:33;;;;;;;22.53;20.20;;;3.80;99.90;;;;;;4914306;29;20494;-70
2020/12/02 06:17:00;;;;;;;25.17;22.67;;;3.80;99.90;;;;;;4913801;29;20521;-75
2020/12/02 06:19:31;;;;;;;24.57;22.07;;;3.70;99.90;;;;;;4913997;29;20783;-75
2020/12/02 06:21:58;;;;;;;26.23;22.93;;;3.80;99.90;;;;;;4914289;29;20446;-75
2020/12/02 06:24:41;;;;;;;22.90;20.60;;;3.80;99.90;;;;;;4913320;29;21219;-72
2020/12/02 06:27:40;;;;;;;23.10;20.90;;;3.90;99.90;;;;;;4913519;29;20999;-71
2020/12/02 06:30:21;;;;;;;25.37;22.80;;;3.90;99.90;;;;;;4912566;29;20449;-75
2020/12/02 06:32:59;;;;;;;22.27;20.37;;;4.00;99.90;;;;;;4914129;29;20486;-75
2020/12/02 06:35:26;;;;;;;22.87;20.73;;;4.00;99.90;;;;;;4913376;29;20513;-74
2020/12/02 06:38:28;;;;;;;23.43;21.20;;;3.90;99.90;;;;;;4913529;29;20450;-75
2020/12/02 06:41:23;;;;;;;23.57;21.20;;;3.90;99.90;;;;;;4910345;29;20868;-75
2020/12/02 06:43:57;;;;;;;24.53;22.03;;;3.90;99.90;;;;;;4880484;29;20478;-76
2020/12/02 06:47:02;;;;;;;23.53;21.17;;;4.00;99.90;;;;;;4913539;29;20450;-76
2020/12/02 06:49:31;;;;;;;23.17;20.80;;;4.00;99.90;;;;;;4855082;29;20456;-76
2020/12/02 06:52:00;;;;;;;24.20;21.90;;;4.00;99.90;;;;;;4858041;29;20441;-75
2020/12/02 06:54:29;;;;;;;22.57;20.37;;;4.10;99.90;;;;;;4887960;29;20741;-75
2020/12/02 06:57:04;;;;;;;25.50;23.00;;;4.30;99.90;;;;;;4917045;29;20442;-76
2020/12/02 06:59:30;;;;;;;24.90;22.50;;;4.30;99.90;;;;;;4917029;29;20501;-75
2020/12/02 07:02:10;;;;;;;24.60;22.40;;;4.00;99.90;;;;;;4916701;29;20477;-74
2020/12/02 07:04:37;;;;;;;22.10;20.10;;;4.00;99.90;;;;;;4916709;29;20517;-75
2020/12/02 07:07:05;;;;;;;23.30;21.17;;;4.10;99.90;;;;;;4916911;29;20461;-76
2020/12/02 07:09:32;;;;;;;22.80;20.70;;;4.10;99.90;;;;;;4916656;29;20830;-75
2020/12/02 07:12:02;;;;;;;24.57;22.20;;;3.90;99.90;;;;;;4916174;29;20459;-75
2020/12/02 07:14:33;;;;;;;24.73;22.20;;;3.90;99.90;;;;;;4916162;29;20569;-76
2020/12/02 07:17:01;;;;;;;25.00;22.60;;;3.90;99.90;;;;;;4916337;29;20510;-76
2020/12/02 07:19:31;;;;;;;24.53;22.17;;;3.90;99.90;;;;;;4916202;29;20451;-77
2020/12/02 07:22:00;;;;;;;25.67;22.97;;;3.80;99.90;;;;;;4916232;29;20539;-76
2020/12/02 07:24:33;;;;;;;22.67;20.50;;;3.70;99.90;;;;;;4916366;29;20932;-76
2020/12/02 07:26:59;;;;;;;27.47;24.47;;;3.70;99.90;;;;;;4916285;29;20454;-76
2020/12/02 07:29:28;;;;;;;25.17;21.53;;;3.70;99.90;;;;;;4916114;29;20518;-75
2020/12/02 07:32:00;;;;;;;26.03;22.07;;;3.60;99.90;;;;;;4915958;29;20799;-75
2020/12/02 07:34:28;;;;;;;22.43;20.10;;;3.60;99.90;;;;;;4915424;29;21320;-75
2020/12/02 07:37:00;;;;;;;24.77;22.33;;;3.60;99.90;;;;;;4915840;29;20462;-75
2020/12/02 07:39:28;;;;;;;23.33;20.93;;;3.70;99.90;;;;;;4915752;29;20458;-76
2020/12/02 07:42:06;;;;;;;23.33;21.10;;;3.60;99.90;;;;;;4915847;29;20454;-75
2020/12/02 07:44:38;;;;;;;24.33;21.77;;;3.80;99.90;;;;;;4915947;29;20928;-76
2020/12/02 07:47:10;;;;;;;25.13;22.60;;;3.80;99.90;;;;;;4915931;29;20457;-76
2020/12/02 07:49:37;;;;;;;24.47;22.00;;;4.00;99.90;;;;;;4915908;29;20447;-76
2020/12/02 07:52:19;;;;;;;25.70;23.10;;;4.00;99.90;;;;;;4915980;29;20458;-75
2020/12/02 07:54:51;;;;;;;24.30;21.77;;;4.00;99.90;;;;;;4915812;29;20900;-77
2020/12/02 07:57:18;;;;;;;29.50;23.67;;;4.00;99.90;;;;;;4915884;29;20517;-77
2020/12/02 07:59:48;;;;;;;22.70;20.50;;;4.00;99.90;;;;;;4915763;29;21003;-77
2020/12/02 08:02:20;;;;;;;21.57;19.37;;;4.20;99.90;;;;;;4915079;29;20482;-77
2020/12/02 08:04:53;;;;;;;24.83;21.40;;;4.20;99.90;;;;;;4915511;29;20449;-76
2020/12/02 08:07:20;;;;;;;28.73;22.60;;;4.20;99.90;;;;;;4915698;29;20829;-79
2020/12/02 08:09:49;;;;;;;22.47;20.40;;;4.20;99.90;;;;;;4915514;29;20455;-78
2020/12/02 08:12:18;;;;;;;25.37;22.80;;;4.10;99.90;;;;;;4915598;29;20446;-78
2020/12/02 08:14:46;;;;;;;28.57;21.60;;;4.00;99.90;;;;;;4915268;29;20486;-76
2020/12/02 08:17:18;;;;;;;22.00;19.43;;;3.90;99.90;;;;;;4915242;29;20932;-76
2020/12/02 08:19:47;;;;;;;25.77;20.73;;;3.90;99.90;;;;;;4915281;29;20446;-76
2020/12/02 08:22:35;;;;;;;23.13;20.33;;;3.80;99.90;;;;;;4915262;29;20447;-77
2020/12/02 08:25:14;;;;;;;20.70;18.67;;;3.80;99.90;;;;;;4915355;29;20530;-76
2020/12/02 08:27:45;;;;;;;23.43;21.03;;;3.70;99.90;;;;;;4915198;29;20454;-76
2020/12/02 08:30:17;;;;;;;22.63;20.33;;;3.70;99.90;;;;;;4915047;29;20972;-77
2020/12/02 08:32:48;;;;;;;23.23;20.30;;;3.70;99.90;;;;;;4914208;29;20525;-76
2020/12/02 08:35:23;;;;;;;23.87;20.20;;;3.80;99.90;;;;;;4915143;29;20483;-80
2020/12/02 08:37:53;;;;;;;22.87;20.50;;;3.80;99.90;;;;;;4915387;29;20825;-80
2020/12/02 08:40:31;;;;;;;23.53;19.87;;;3.80;99.90;;;;;;4919228;29;20459;-78
2020/12/02 08:43:21;;;;;;;25.20;19.90;;;3.80;99.90;;;;;;4927358;29;20457;-78
2020/12/02 08:45:56;;;;;;;24.17;19.30;;;3.90;99.90;;;;;;4922285;29;20453;-79
2020/12/02 08:48:23;;;;;;;28.47;21.73;;;3.80;99.90;;;;;;4914840;29;20446;-78
2020/12/02 08:50:49;;;;;;;22.97;20.40;;;3.80;99.90;;;;;;4914952;29;20803;-79
2020/12/02 08:53:23;;;;;;;21.57;19.40;;;4.00;99.90;;;;;;4914912;29;20510;-79
2020/12/02 08:55:50;;;;;;;21.37;19.10;;;3.90;99.90;;;;;;4914746;29;20490;-79
2020/12/02 08:58:16;;;;;;;23.87;21.33;;;3.90;99.90;;;;;;4914717;29;20454;-78
2020/12/02 09:00:42;;;;;;;21.37;19.20;;;3.80;99.90;;;;;;4914646;29;20505;-79
2020/12/02 09:03:09;;;;;;;22.57;20.20;;;3.70;99.90;;;;;;4914260;29;20454;-78
2020/12/02 09:05:35;;;;;;;26.43;21.20;;;3.80;99.90;;;;;;4914622;29;20451;-79
2020/12/02 09:08:02;;;;;;;26.10;21.27;;;3.70;99.90;;;;;;4914540;29;20537;-79
2020/12/02 09:10:28;;;;;;;25.00;22.30;;;3.60;99.90;;;;;;4914268;29;20527;-79
2020/12/02 09:12:56;;;;;;;21.17;18.90;;;3.70;99.90;;;;;;4913498;29;20447;-78
2020/12/02 09:15:22;;;;;;;23.80;20.77;;;3.70;99.90;;;;;;4914383;29;21145;-79
2020/12/02 09:17:49;;;;;;;22.70;20.30;;;3.80;99.90;;;;;;4914534;29;20796;-79
2020/12/02 09:20:15;;;;;;;20.47;17.90;;;3.80;99.90;;;;;;4914282;29;20466;-80
2020/12/02 09:22:41;;;;;;;21.87;19.67;;;3.90;99.90;;;;;;4914147;29;20447;-80
2020/12/02 09:25:08;;;;;;;22.13;19.83;;;4.00;99.90;;;;;;4914422;29;20439;-80
2020/12/02 09:27:36;;;;;;;23.00;19.67;;;4.00;99.90;;;;;;4914863;29;20857;-80
2020/12/02 09:30:04;;;;;;;20.83;18.63;;;4.10;99.90;;;;;;4914950;29;20464;-79
2020/12/02 09:32:31;;;;;;;20.97;18.87;;;4.10;99.90;;;;;;4914648;29;20498;-80
2020/12/02 09:34:57;;;;;;;20.77;18.70;;;4.20;99.90;;;;;;4913633;29;20525;-79
2020/12/02 09:37:23;;;;;;;19.27;17.50;;;4.20;99.90;;;;;;4913998;29;20454;-81
2020/12/02 09:39:50;;;;;;;20.30;18.47;;;4.30;99.90;;;;;;4913929;29;20451;-81
2020/12/02 09:42:31;;;;;;;20.87;18.77;;;4.30;99.90;;;;;;4913897;29;20458;-81
2020/12/02 09:45:01;;;;;;;21.57;19.40;;;4.50;99.90;;;;;;4913744;29;20449;-79
2020/12/02 09:47:28;;;;;;;21.47;19.17;;;4.40;99.90;;;;;;4913778;29;20505;-80
2020/12/02 09:49:55;;;;;;;20.27;18.30;;;4.50;99.90;;;;;;4914143;29;20450;-80
2020/12/02 09:52:37;;;;;;;23.07;20.70;;;4.50;99.90;;;;;;4914281;29;20937;-80
2020/12/02 09:55:07;;;;;;;23.77;20.37;;;4.50;99.90;;;;;;4914258;29;21604;-82
2020/12/02 09:57:34;;;;;;;22.70;20.00;;;4.50;99.90;;;;;;4914395;29;20457;-81
2020/12/02 10:00:00;;;;;;;29.27;23.50;;;4.50;99.90;;;;;;4914041;29;20921;-80
2020/12/02 10:03:00;;;;;;;22.93;20.13;;;4.40;99.90;;;;;;4914133;29;20453;-82
2020/12/02 10:05:47;;;;;;;23.87;21.47;;;4.50;99.90;;;;;;4914225;29;20485;-83
2020/12/02 10:08:27;;;;;;;25.77;22.30;;;4.50;99.90;;;;;;4914043;29;20446;-81
2020/12/02 10:10:59;;;;;;;23.67;21.13;;;4.60;99.90;;;;;;4914059;29;20446;-83
2020/12/02 10:13:37;;;;;;;26.40;21.20;;;4.60;99.90;;;;;;4914062;29;20689;-84
2020/12/02 10:16:12;;;;;;;25.17;22.60;;;4.70;99.90;;;;;;4914188;29;20494;-81
2020/12/02 10:19:07;;;;;;;24.97;22.40;;;4.70;99.90;;;;;;4915009;29;20453;-79
2020/12/02 10:21:59;;;;;;;29.27;22.30;;;4.60;99.90;;;;;;4914185;29;20458;-79
2020/12/02 10:24:37;;;;;;;25.60;22.43;;;4.60;99.90;;;;;;4914896;29;20949;-80
2020/12/02 10:27:17;;;;;;;30.83;26.47;;;4.70;99.90;;;;;;4918296;29;20887;-79
2020/12/02 10:29:58;;;;;;;28.77;24.20;;;4.80;99.90;;;;;;4918162;29;20446;-81
2020/12/02 10:32:41;;;;;;;23.43;20.93;;;4.60;99.90;;;;;;4917305;29;20960;-80
2020/12/02 10:35:10;;;;;;;28.57;21.97;;;4.50;99.90;;;;;;4916855;29;21059;-80
2020/12/02 10:37:39;;;;;;;28.43;23.83;;;4.40;99.90;;;;;;4917160;29;20802;-82
2020/12/02 10:40:08;;;;;;;25.60;22.90;;;4.40;99.90;;;;;;4917076;29;20446;-81
2020/12/02 10:42:45;;;;;;;25.43;20.87;;;4.50;99.90;;;;;;4917085;29;20964;-82
2020/12/02 10:45:13;;;;;;;26.53;22.93;;;4.50;99.90;;;;;;4917267;29;20787;-80
2020/12/02 10:47:56;;;;;;;24.47;21.97;;;4.60;99.90;;;;;;4916679;29;20446;-80
2020/12/02 10:50:25;;;;;;;25.87;23.07;;;4.80;99.90;;;;;;4916607;29;20447;-81
2020/12/02 10:52:54;;;;;;;26.97;24.13;;;4.50;99.90;;;;;;4916874;29;20450;-81
2020/12/02 10:55:23;;;;;;;24.43;20.50;;;4.60;99.90;;;;;;4916784;29;21086;-82
2020/12/02 10:57:55;;;;;;;26.87;22.70;;;4.70;99.90;;;;;;4916772;29;20868;-82
2020/12/02 11:00:22;;;;;;;26.67;21.77;;;4.60;99.90;;;;;;4916723;29;21019;-82
2020/12/02 11:03:02;;;;;;;27.00;21.30;;;4.60;99.90;;;;;;4916741;29;20449;-81
2020/12/02 11:05:29;;;;;;;24.70;21.10;;;4.70;99.90;;;;;;4916524;29;20517;-82
2020/12/02 11:08:05;;;;;;;24.37;20.87;;;4.60;99.90;;;;;;4916537;29;20944;-82
2020/12/02 11:10:38;;;;;;;22.83;20.30;;;4.50;99.90;;;;;;4916698;29;20449;-82
2020/12/02 11:13:14;;;;;;;25.13;22.50;;;4.60;99.90;;;;;;4916559;29;20510;-79
2020/12/02 11:15:50;;;;;;;22.23;20.00;;;4.70;99.90;;;;;;4916343;29;20860;-81
2020/12/02 11:18:31;;;;;;;25.07;21.40;;;4.70;99.90;;;;;;4916276;29;20450;-82
2020/12/02 11:21:09;;;;;;;25.53;21.97;;;4.70;99.90;;;;;;4916474;29;20450;-79
2020/12/02 11:23:51;;;;;;;25.87;22.60;;;4.80;99.90;;;;;;4916324;29;20493;-80
2020/12/02 11:26:23;;;;;;;27.63;24.83;;;4.80;99.90;;;;;;4916463;29;20808;-80
2020/12/02 11:28:50;;;;;;;20.90;18.90;;;4.60;99.90;;;;;;4916382;29;20453;-80
2020/12/02 11:31:32;;;;;;;23.00;20.30;;;4.70;99.90;;;;;;4916273;29;20449;-80
2020/12/02 11:34:17;;;;;;;23.70;21.20;;;4.50;99.90;;;;;;4915809;29;21106;-79
2020/12/02 11:37:00;;;;;;;23.33;20.50;;;4.50;99.90;;;;;;4915286;29;20541;-80
2020/12/02 11:39:36;;;;;;;22.07;19.77;;;4.30;99.90;;;;;;4916040;29;21032;-80
2020/12/02 11:42:10;;;;;;;28.10;23.77;;;4.20;99.90;;;;;;4916187;29;20450;-80
2020/12/02 11:44:42;;;;;;;28.60;22.70;;;4.30;99.90;;;;;;4915858;29;20968;-81
2020/12/02 11:47:19;;;;;;;23.20;20.83;;;4.20;99.90;;;;;;4915922;29;20446;-81
2020/12/02 11:49:53;;;;;;;28.43;23.60;;;4.20;99.90;;;;;;4915997;29;20842;-80
2020/12/02 11:52:44;;;;;;;28.13;22.40;;;4.10;99.90;;;;;;4915997;29;20454;-79
2020/12/02 11:55:15;;;;;;;25.80;23.00;;;4.20;99.90;;;;;;4915481;29;20557;-82
2020/12/02 11:57:48;;;;;;;29.50;22.30;;;4.10;99.90;;;;;;4915782;29;20506;-83
2020/12/02 12:00:14;;;;;;;27.47;21.87;;;4.00;99.90;;;;;;4915622;29;20443;-82
2020/12/02 12:03:12;;;;;;;23.80;21.03;;;4.00;99.90;;;;;;4915722;29;20509;-81
2020/12/02 12:05:49;;;;;;;30.50;22.43;;;4.00;99.90;;;;;;4895781;29;20498;-81
2020/12/02 12:08:23;;;;;;;28.90;23.10;;;3.90;99.90;;;;;;4915658;29;20872;-81
2020/12/02 12:10:55;;;;;;;31.10;23.83;;;3.90;99.90;;;;;;4915774;29;20453;-78
2020/12/02 12:13:27;;;;;;;31.80;25.87;;;3.90;99.90;;;;;;4915455;29;20442;-78
2020/12/02 12:15:58;;;;;;;30.50;24.13;;;3.90;99.90;;;;;;4915304;29;20557;-79
2020/12/02 12:18:40;;;;;;;29.57;23.43;;;4.00;99.90;;;;;;4915294;29;20458;-80
2020/12/02 12:21:18;;;;;;;35.97;24.50;;;4.10;99.90;;;;;;4913893;29;20521;-79
2020/12/02 12:23:57;;;;;;;31.20;24.33;;;4.00;99.90;;;;;;4915525;29;20463;-79
2020/12/02 12:26:25;;;;;;;31.40;22.03;;;3.90;99.90;;;;;;4915475;29;20446;-79
2020/12/02 12:28:51;;;;;;;29.80;24.20;;;4.00;99.90;;;;;;4915526;29;20936;-79
2020/12/02 12:31:22;;;;;;;29.47;23.07;;;4.00;99.90;;;;;;4915631;29;20454;-79
2020/12/02 12:33:55;;;;;;;27.47;22.33;;;4.10;99.90;;;;;;4915726;29;20474;-79
2020/12/02 12:36:23;;;;;;;26.47;23.30;;;4.10;99.90;;;;;;4915216;29;20996;-80
2020/12/02 12:38:57;;;;;;;34.10;25.00;;;4.10;99.90;;;;;;4915560;29;20967;-80
2020/12/02 12:41:26;;;;;;;36.90;25.37;;;4.10;99.90;;;;;;4915592;29;20454;-79
2020/12/02 12:43:57;;;;;;;28.03;23.20;;;4.00;99.90;;;;;;4915187;29;20442;-79
2020/12/02 12:46:38;;;;;;;37.20;23.93;;;3.90;99.90;;;;;;4914999;29;20447;-79
2020/12/02 12:49:05;;;;;;;29.47;24.30;;;3.90;99.90;;;;;;4915442;29;20846;-79
2020/12/02 12:51:32;;;;;;;35.10;25.67;;;3.80;99.90;;;;;;4915275;29;20450;-79
2020/12/02 12:54:03;;;;;;;27.80;21.30;;;3.80;99.90;;;;;;4915283;29;20501;-80
2020/12/02 12:56:30;;;;;;;31.17;23.90;;;3.70;99.90;;;;;;4914947;29;20569;-80
2020/12/02 12:58:59;;;;;;;29.53;23.30;;;3.60;99.90;;;;;;4915076;29;20952;-80
2020/12/02 13:01:29;;;;;;;28.47;23.73;;;3.60;99.90;;;;;;4914970;29;20673;-79
2020/12/02 13:03:59;;;;;;;26.60;22.67;;;3.60;99.90;;;;;;4914808;29;20532;-79
2020/12/02 13:06:41;;;;;;;25.20;21.97;;;3.70;99.90;;;;;;4914816;29;20446;-81
2020/12/02 13:09:17;;;;;;;30.20;24.70;;;3.70;99.90;;;;;;4915110;29;20450;-82
2020/12/02 13:11:55;;;;;;;24.63;22.10;;;3.70;99.90;;;;;;4914864;29;20468;-81
2020/12/02 13:14:31;;;;;;;26.53;21.27;;;3.80;99.90;;;;;;4914727;29;20815;-81
2020/12/02 13:17:02;;;;;;;26.20;21.50;;;3.80;99.90;;;;;;4914658;29;20489;-81
2020/12/02 13:19:39;;;;;;;24.33;21.80;;;3.60;99.90;;;;;;4914935;29;20459;-81
2020/12/02 13:22:14;;;;;;;28.03;23.10;;;3.70;99.90;;;;;;4913109;29;20509;-80
2020/12/02 13:24:46;;;;;;;28.40;21.60;;;3.70;99.90;;;;;;4914569;29;20464;-79
2020/12/02 13:27:19;;;;;;;26.83;21.83;;;3.60;99.90;;;;;;4914864;29;20455;-80
2020/12/02 13:29:48;;;;;;;26.27;21.37;;;3.70;99.90;;;;;;4914534;29;20820;-79
2020/12/02 13:32:20;;;;;;;27.23;22.30;;;3.60;99.90;;;;;;4914779;29;20462;-80
2020/12/02 13:34:47;;;;;;;25.30;22.70;;;3.70;99.90;;;;;;4914656;29;20894;-80
2020/12/02 13:37:16;;;;;;;24.97;22.27;;;3.80;99.90;;;;;;4920356;29;20505;-79
2020/12/02 13:39:43;;;;;;;25.33;22.10;;;3.80;99.90;;;;;;4932227;29;20877;-80
2020/12/02 13:42:11;;;;;;;26.17;22.40;;;3.90;99.90;;;;;;4914785;29;20450;-79
2020/12/02 13:44:42;;;;;;;24.60;21.20;;;3.90;99.90;;;;;;4914701;29;20469;-80
2020/12/02 13:47:11;;;;;;;24.83;22.30;;;3.70;99.90;;;;;;4914552;29;20457;-79
2020/12/02 13:49:38;;;;;;;25.80;22.00;;;3.60;99.90;;;;;;4914712;29;20550;-79
2020/12/02 13:52:14;;;;;;;25.80;20.30;;;3.70;99.90;;;;;;4914719;29;20458;-80
2020/12/02 13:54:50;;;;;;;27.03;20.50;;;3.60;99.90;;;;;;4914524;29;20438;-81
2020/12/02 13:57:25;;;;;;;31.03;22.33;;;3.60;99.90;;;;;;4914433;29;20490;-80
2020/12/02 14:00:04;;;;;;;24.17;21.57;;;3.50;99.90;;;;;;4916347;29;20454;-81
2020/12/02 14:02:48;;;;;;;32.90;23.90;;;3.40;99.90;;;;;;4917951;29;20886;-79
2020/12/02 14:05:26;;;;;;;24.93;22.20;;;3.40;99.90;;;;;;4936616;29;20493;-78
2020/12/02 14:07:54;;;;;;;30.03;23.83;;;3.40;99.90;;;;;;4936980;29;20456;-79
2020/12/02 14:10:22;;;;;;;28.57;21.53;;;3.40;99.90;;;;;;4937317;29;20458;-80
2020/12/02 14:12:49;;;;;;;29.40;23.00;;;3.50;99.90;;;;;;4937441;29;20465;-80
2020/12/02 14:15:17;;;;;;;27.80;21.60;;;3.40;99.90;;;;;;4937359;29;20521;-79
2020/12/02 14:17:44;;;;;;;27.30;21.43;;;3.40;99.90;;;;;;4937492;29;20834;-79
2020/12/02 14:20:11;;;;;;;24.40;21.73;;;3.40;99.90;;;;;;4937096;29;20455;-81
2020/12/02 14:22:40;;;;;;;24.57;20.57;;;3.40;99.90;;;;;;4937145;29;20452;-81
2020/12/02 14:25:08;;;;;;;31.83;23.80;;;3.30;99.90;;;;;;4937234;29;20449;-81
2020/12/02 14:27:38;;;;;;;35.10;21.30;;;3.40;99.90;;;;;;4937251;29;20798;-81
2020/12/02 14:30:11;;;;;;;28.10;23.07;;;3.40;99.90;;;;;;4937492;29;20449;-81
2020/12/02 14:32:37;;;;;;;27.20;21.43;;;3.30;99.90;;;;;;4936959;29;20457;-80
2020/12/02 14:35:04;;;;;;;27.83;23.37;;;3.30;99.90;;;;;;4936903;29;20485;-80
2020/12/02 14:37:30;;;;;;;29.90;22.00;;;3.10;99.90;;;;;;4936963;29;20457;-81
2020/12/02 14:39:56;;;;;;;27.40;21.60;;;3.10;99.90;;;;;;4937033;29;20516;-82
2020/12/02 14:42:22;;;;;;;24.67;19.17;;;3.10;99.90;;;;;;4937181;29;20458;-81
2020/12/02 14:44:49;;;;;;;33.50;23.30;;;3.10;99.90;;;;;;4936948;29;20815;-81
2020/12/02 14:47:16;;;;;;;28.13;22.93;;;3.00;99.90;;;;;;4936821;29;20798;-80
2020/12/02 14:49:42;;;;;;;28.77;23.00;;;3.10;99.90;;;;;;4934721;29;20508;-81
2020/12/02 14:52:09;;;;;;;26.93;21.83;;;3.20;99.90;;;;;;4936598;29;20861;-81
2020/12/02 14:54:35;;;;;;;25.33;21.97;;;3.30;99.90;;;;;;4937027;29;20477;-80
2020/12/02 14:57:25;;;;;;;28.37;21.47;;;3.30;99.90;;;;;;4936571;29;20991;-81
2020/12/02 15:00:06;;;;;;;27.90;20.97;;;3.10;99.90;;;;;;4936817;29;20441;-81
2020/12/02 15:02:33;;;;;;;26.10;21.00;;;3.10;99.90;;;;;;4937303;29;20453;-80
2020/12/02 15:04:59;;;;;;;29.70;21.20;;;3.20;99.90;;;;;;4936960;29;20450;-80
2020/12/02 15:07:41;;;;;;;25.17;22.53;;;3.10;99.90;;;;;;4936965;29;21003;-80
2020/12/02 15:10:15;;;;;;;21.87;18.70;;;3.00;99.90;;;;;;4936223;29;20452;-79
2020/12/02 15:12:43;;;;;;;25.60;20.97;;;2.90;99.90;;;;;;4935489;29;20451;-79
2020/12/02 15:15:12;;;;;;;22.93;20.30;;;2.80;99.90;;;;;;4936199;29;20461;-79
2020/12/02 15:17:49;;;;;;;24.37;19.73;;;2.80;99.90;;;;;;4936406;29;20449;-79
2020/12/02 15:20:19;;;;;;;23.73;21.33;;;2.80;99.90;;;;;;4935750;29;20500;-79
2020/12/02 15:22:46;;;;;;;24.23;20.63;;;2.90;99.90;;;;;;4936074;29;20450;-79
2020/12/02 15:25:12;;;;;;;23.90;21.50;;;2.90;99.90;;;;;;4935595;29;20453;-80
2020/12/02 15:27:46;;;;;;;23.17;20.80;;;2.90;99.90;;;;;;4936200;29;20450;-80
2020/12/02 15:30:25;;;;;;;28.70;21.80;;;2.90;99.90;;;;;;4935837;29;20545;-80
2020/12/02 15:32:55;;;;;;;27.73;22.93;;;3.00;99.90;;;;;;4936003;29;20441;-80
2020/12/02 15:35:22;;;;;;;21.97;19.73;;;2.90;99.90;;;;;;4935191;29;20481;-81
2020/12/02 15:37:59;;;;;;;22.67;20.37;;;2.90;99.90;;;;;;4935955;29;20445;-82
2020/12/02 15:40:34;;;;;;;22.23;19.60;;;2.90;99.90;;;;;;4935975;29;20478;-81
2020/12/02 15:43:16;;;;;;;24.50;20.33;;;2.90;99.90;;;;;;4936260;29;20519;-81
2020/12/02 15:45:49;;;;;;;22.50;20.07;;;2.90;99.90;;;;;;4936100;29;20441;-80
2020/12/02 15:48:23;;;;;;;25.13;20.70;;;2.70;99.90;;;;;;4935845;29;20453;-81
2020/12/02 15:50:57;;;;;;;25.37;19.63;;;2.80;99.90;;;;;;4936032;29;20460;-81
2020/12/02 15:53:38;;;;;;;28.20;19.17;;;2.80;99.90;;;;;;4935795;29;20445;-82
2020/12/02 15:56:17;;;;;;;21.50;19.07;;;2.70;99.90;;;;;;4935814;29;20492;-81
2020/12/02 16:02:03;;;;;;;22.60;19.13;;;2.70;99.90;;;;;;4932126;29;20449;-80
2020/12/02 16:04:36;;;;;;;22.80;20.30;;;2.70;99.90;;;;;;4936206;29;20449;-81
2020/12/02 16:07:08;;;;;;;22.60;18.93;;;2.60;99.90;;;;;;4935980;29;20445;-80
2020/12/02 16:09:37;;;;;;;22.67;19.03;;;2.70;99.90;;;;;;4936119;29;20449;-81
2020/12/02 16:12:06;;;;;;;24.30;21.07;;;2.70;99.90;;;;;;4935734;29;20516;-79
2020/12/02 16:14:32;;;;;;;21.53;18.30;;;2.80;99.90;;;;;;4935529;29;20493;-80
2020/12/02 16:16:58;;;;;;;21.40;19.10;;;2.70;99.90;;;;;;4934996;29;20481;-80
2020/12/02 16:19:25;;;;;;;25.20;20.17;;;2.60;99.90;;;;;;4935218;29;20449;-80
2020/12/02 16:22:02;;;;;;;21.83;19.77;;;2.60;99.90;;;;;;4934919;29;20449;-80
2020/12/02 16:24:29;;;;;;;21.57;19.23;;;2.60;99.90;;;;;;4935357;29;20449;-80
2020/12/02 16:27:00;;;;;;;21.00;18.83;;;2.60;99.90;;;;;;4935360;29;20456;-80
2020/12/02 16:29:26;;;;;;;22.33;19.63;;;2.50;99.90;;;;;;4935392;29;20580;-80
2020/12/02 16:31:54;;;;;;;25.50;21.37;;;2.70;99.90;;;;;;4934846;29;20795;-80
2020/12/02 16:34:20;;;;;;;21.00;18.90;;;2.60;99.90;;;;;;4934773;29;20473;-80
2020/12/02 16:36:47;;;;;;;21.33;18.90;;;2.60;99.90;;;;;;4934992;29;20553;-80